Time;durP1;ratioP1;P1;durP2;ratioP2;P2;SDS_P1;SDS_P2;PMS_P1;PMS_P2;Temp;Humidity;BMP_temperature;BMP_pressure;BME280_temperature;BME280_humidity;BME280_pressure;Samples;Min_cycle;Max_cycle;Signal;HPM_P1;HPM_P2
2022/03/10 00:01:30;;;;;;;5.60;2.33;;;25.10;32.60;;;;;;4946531;28;20411;-55
2022/03/10 00:03:57;;;;;;;3.83;2.20;;;25.10;32.50;;;;;;4947584;28;20098;-55
2022/03/10 00:06:24;;;;;;;2.45;1.55;;;25.10;32.60;;;;;;4946381;28;20524;-53
2022/03/10 00:08:51;;;;;;;3.25;1.80;;;25.10;32.60;;;;;;4947014;28;20031;-54
2022/03/10 00:11:19;;;;;;;5.00;2.17;;;25.10;32.60;;;;;;4946956;28;20035;-55
2022/03/10 00:13:47;;;;;;;4.82;1.50;;;25.10;32.60;;;;;;4947004;28;20091;-53
2022/03/10 00:16:14;;;;;;;2.10;1.25;;;25.10;32.60;;;;;;4948677;28;20049;-52
2022/03/10 00:18:41;;;;;;;2.03;1.83;;;25.10;32.70;;;;;;4946905;28;20043;-57
2022/03/10 00:21:08;;;;;;;2.75;1.48;;;25.10;32.60;;;;;;4946885;28;20047;-57
2022/03/10 00:23:35;;;;;;;2.63;1.80;;;25.10;33.30;;;;;;4946911;28;20514;-57
2022/03/10 00:26:02;;;;;;;1.77;1.25;;;25.00;32.70;;;;;;4946958;28;20411;-54
2022/03/10 00:28:32;;;;;;;2.53;1.48;;;25.00;32.60;;;;;;4948721;28;20583;-55
2022/03/10 00:30:59;;;;;;;1.20;1.10;;;25.00;32.70;;;;;;4951133;28;20035;-52
2022/03/10 00:33:26;;;;;;;2.80;1.63;;;25.00;32.80;;;;;;4950127;28;20043;-54
2022/03/10 00:35:53;;;;;;;2.78;1.77;;;25.00;32.80;;;;;;4948871;28;20035;-56
2022/03/10 00:38:20;;;;;;;2.03;1.77;;;25.00;33.00;;;;;;4950428;28;20039;-54
2022/03/10 00:40:47;;;;;;;2.40;1.67;;;25.00;33.00;;;;;;4950951;28;20047;-52
2022/03/10 00:43:15;;;;;;;2.70;1.30;;;25.00;33.10;;;;;;4951900;28;20038;-58
2022/03/10 00:45:44;;;;;;;1.88;0.88;;;25.00;33.10;;;;;;4950426;28;20056;-56
2022/03/10 00:48:11;;;;;;;2.20;1.13;;;25.00;33.10;;;;;;4950129;28;20062;-56
2022/03/10 00:50:38;;;;;;;3.85;2.05;;;25.00;33.10;;;;;;4949993;28;20463;-57
2022/03/10 00:53:05;;;;;;;2.03;1.60;;;25.00;33.20;;;;;;4950417;28;20046;-55
2022/03/10 00:55:32;;;;;;;5.45;1.50;;;25.00;33.30;;;;;;4950877;28;20130;-56
2022/03/10 00:57:59;;;;;;;2.90;1.40;;;25.00;33.30;;;;;;4950389;28;20087;-54
2022/03/10 01:00:28;;;;;;;2.22;1.83;;;25.00;33.40;;;;;;4950502;28;20219;-55
2022/03/10 01:02:57;;;;;;;4.38;1.63;;;24.90;33.40;;;;;;4949984;28;20046;-54
2022/03/10 01:05:24;;;;;;;2.00;1.88;;;24.90;33.40;;;;;;4949988;28;20039;-53
2022/03/10 01:07:51;;;;;;;1.38;1.27;;;24.90;33.40;;;;;;4949994;28;20043;-54
2022/03/10 01:10:19;;;;;;;2.22;1.92;;;24.90;33.50;;;;;;4951919;28;20047;-55
2022/03/10 01:12:46;;;;;;;2.40;1.58;;;24.90;33.50;;;;;;4949541;28;20059;-55
2022/03/10 01:15:15;;;;;;;3.33;1.52;;;24.90;33.50;;;;;;4948435;28;20131;-56
2022/03/10 01:17:42;;;;;;;3.55;1.13;;;24.90;33.40;;;;;;4944042;28;20035;-50
2022/03/10 01:20:13;;;;;;;3.60;1.88;;;24.90;33.40;;;;;;4950273;28;20043;-55
2022/03/10 01:22:40;;;;;;;2.10;1.98;;;24.90;33.40;;;;;;4949006;28;20054;-54
2022/03/10 01:25:09;;;;;;;1.48;1.13;;;24.90;33.40;;;;;;4950005;28;20150;-54
2022/03/10 01:27:37;;;;;;;2.10;1.90;;;24.90;33.40;;;;;;4947702;28;20071;-53
2022/03/10 01:30:05;;;;;;;2.50;1.77;;;24.90;33.60;;;;;;4949201;28;20035;-53
2022/03/10 01:32:32;;;;;;;1.70;1.52;;;24.90;33.40;;;;;;4943171;28;20051;-52
2022/03/10 01:34:59;;;;;;;1.67;1.58;;;24.90;33.40;;;;;;4947575;28;20042;-55
2022/03/10 01:37:28;;;;;;;2.47;2.03;;;24.80;33.40;;;;;;4950417;28;20050;-56
2022/03/10 01:39:55;;;;;;;2.45;2.25;;;24.80;33.40;;;;;;4950040;28;20062;-53
2022/03/10 01:42:23;;;;;;;2.08;1.88;;;24.80;33.40;;;;;;4945806;28;20530;-52
2022/03/10 01:44:53;;;;;;;1.85;1.75;;;24.80;33.40;;;;;;4949253;28;20722;-52
2022/03/10 01:47:20;;;;;;;1.65;1.55;;;24.80;33.50;;;;;;4948921;28;20046;-56
2022/03/10 01:49:47;;;;;;;2.03;1.83;;;24.80;33.50;;;;;;4949305;28;20048;-52
2022/03/10 01:52:16;;;;;;;1.48;1.38;;;24.80;33.50;;;;;;4950791;28;20051;-51
2022/03/10 01:54:44;;;;;;;1.60;1.55;;;24.80;33.60;;;;;;4948899;28;20054;-55
2022/03/10 01:57:12;;;;;;;1.88;1.48;;;24.80;33.50;;;;;;4949218;28;20499;-55
2022/03/10 01:59:40;;;;;;;1.27;1.17;;;24.80;33.50;;;;;;4947025;28;20032;-54
2022/03/10 02:02:08;;;;;;;1.73;1.58;;;24.80;33.40;;;;;;4948815;28;20043;-52
2022/03/10 02:04:35;;;;;;;1.83;1.30;;;24.80;33.50;;;;;;4949713;28;20046;-53
2022/03/10 02:07:04;;;;;;;2.63;2.08;;;24.80;33.40;;;;;;4949858;28;20043;-52
2022/03/10 02:12:17;;;;;;;2.25;1.83;;;24.70;33.40;;;;;;4944057;28;20047;-53
2022/03/10 02:17:29;;;;;;;2.35;1.20;;;24.70;33.30;;;;;;4948405;28;20035;-49
2022/03/10 02:19:58;;;;;;;2.58;2.03;;;24.70;33.30;;;;;;4949218;28;20054;-53
2022/03/10 02:22:27;;;;;;;2.20;1.95;;;24.70;33.30;;;;;;4950449;28;20043;-54
2022/03/10 02:24:55;;;;;;;2.17;1.48;;;24.70;33.30;;;;;;4949541;28;20045;-55
2022/03/10 02:27:23;;;;;;;2.33;2.13;;;24.60;33.30;;;;;;4948350;28;20053;-53
2022/03/10 02:29:52;;;;;;;2.35;1.35;;;24.60;33.20;;;;;;4948401;28;20419;-53
2022/03/10 02:32:20;;;;;;;4.85;1.92;;;24.60;33.30;;;;;;4948130;28;20047;-51
2022/03/10 02:34:48;;;;;;;2.63;1.85;;;24.60;33.40;;;;;;4945316;28;20051;-52
2022/03/10 02:37:16;;;;;;;4.47;2.35;;;24.60;33.40;;;;;;4949753;28;20062;-52
2022/03/10 02:39:45;;;;;;;3.30;1.77;;;24.60;33.50;;;;;;4948123;28;20035;-54
2022/03/10 02:42:13;;;;;;;2.20;1.63;;;24.60;33.50;;;;;;4948153;28;20138;-54
2022/03/10 02:44:42;;;;;;;3.58;1.30;;;24.60;33.50;;;;;;4948400;28;20046;-55
2022/03/10 02:47:09;;;;;;;2.70;2.50;;;24.60;33.50;;;;;;4948294;28;20035;-53
2022/03/10 02:49:38;;;;;;;3.35;1.90;;;24.60;33.50;;;;;;4948584;28;20522;-54
2022/03/10 02:52:05;;;;;;;2.22;2.08;;;24.60;33.40;;;;;;4948827;28;20065;-54
2022/03/10 02:54:32;;;;;;;1.77;1.67;;;24.60;33.40;;;;;;4947685;28;20039;-54
2022/03/10 02:57:01;;;;;;;4.35;2.08;;;24.60;33.50;;;;;;4947904;28;20048;-52
2022/03/10 02:59:28;;;;;;;3.53;2.33;;;24.50;33.40;;;;;;4947582;28;20043;-56
2022/03/10 03:01:57;;;;;;;3.10;2.33;;;24.60;33.40;;;;;;4947869;28;20043;-54
2022/03/10 03:04:25;;;;;;;2.42;2.22;;;24.50;33.40;;;;;;4949831;28;20047;-51
2022/03/10 03:06:52;;;;;;;2.78;2.58;;;24.50;33.40;;;;;;4948384;28;20091;-54
2022/03/10 03:09:19;;;;;;;2.67;2.33;;;24.50;33.30;;;;;;4947493;28;20431;-54
2022/03/10 03:11:46;;;;;;;2.38;1.33;;;24.50;33.30;;;;;;4947556;28;20053;-54
2022/03/10 03:14:15;;;;;;;4.53;2.00;;;24.40;33.40;;;;;;4947276;28;20455;-55
2022/03/10 03:16:42;;;;;;;2.13;1.92;;;24.50;33.50;;;;;;4947536;28;20053;-54
2022/03/10 03:19:09;;;;;;;2.92;2.67;;;24.50;33.50;;;;;;4949295;28;20054;-54
2022/03/10 03:21:36;;;;;;;3.17;2.10;;;24.50;33.60;;;;;;4947476;28;20051;-54
2022/03/10 03:24:03;;;;;;;2.75;1.80;;;24.40;33.50;;;;;;4947395;28;20107;-53
2022/03/10 03:26:30;;;;;;;2.88;1.98;;;24.40;33.60;;;;;;4947616;28;20035;-54
2022/03/10 03:28:57;;;;;;;3.10;2.08;;;24.40;33.60;;;;;;4947268;28;20046;-54
2022/03/10 03:31:25;;;;;;;1.63;1.52;;;24.40;33.60;;;;;;4948672;28;20618;-54
2022/03/10 03:33:52;;;;;;;6.07;2.33;;;24.40;33.70;;;;;;4948127;28;20515;-52
2022/03/10 03:36:19;;;;;;;2.50;1.65;;;24.40;33.70;;;;;;4958206;28;20630;-56
2022/03/10 03:38:46;;;;;;;2.03;1.88;;;24.40;33.70;;;;;;4947253;28;20440;-52
2022/03/10 03:41:13;;;;;;;3.42;2.17;;;24.40;33.70;;;;;;4947578;28;20119;-52
2022/03/10 03:43:40;;;;;;;4.70;2.13;;;24.40;33.70;;;;;;4946001;28;20062;-57
2022/03/10 03:46:09;;;;;;;2.42;2.17;;;24.40;33.70;;;;;;4946717;28;20050;-54
2022/03/10 03:48:37;;;;;;;4.28;2.38;;;24.40;33.70;;;;;;4947420;28;20137;-54
2022/03/10 03:51:04;;;;;;;2.53;2.33;;;24.30;33.60;;;;;;4947969;28;20043;-55
2022/03/10 03:53:31;;;;;;;1.83;1.73;;;24.30;33.60;;;;;;4946755;28;20570;-57
2022/03/10 03:55:58;;;;;;;1.48;1.25;;;24.30;33.60;;;;;;4948258;28;20075;-56
2022/03/10 03:58:26;;;;;;;2.38;1.70;;;24.30;33.70;;;;;;4949542;28;20051;-55
2022/03/10 04:00:53;;;;;;;4.47;2.90;;;24.30;33.70;;;;;;4948246;28;20527;-58
2022/03/10 04:03:20;;;;;;;1.60;1.50;;;24.30;33.60;;;;;;4938698;28;20047;-54
2022/03/10 04:05:48;;;;;;;1.67;1.58;;;24.30;33.60;;;;;;4950094;28;20044;-53
2022/03/10 04:08:15;;;;;;;3.35;2.08;;;24.30;33.60;;;;;;4947143;28;20059;-52
2022/03/10 04:10:42;;;;;;;2.35;2.05;;;24.30;33.70;;;;;;4947315;28;20066;-55
2022/03/10 04:13:09;;;;;;;2.88;1.80;;;24.30;33.70;;;;;;4952243;28;20061;-55
2022/03/10 04:15:37;;;;;;;2.33;2.10;;;24.30;33.70;;;;;;4951156;28;20040;-52
2022/03/10 04:18:04;;;;;;;1.40;1.20;;;24.30;33.80;;;;;;4951147;28;20057;-54
2022/03/10 04:20:31;;;;;;;2.38;1.77;;;24.30;33.70;;;;;;4950971;28;20043;-54
2022/03/10 04:22:59;;;;;;;1.48;1.38;;;24.30;33.80;;;;;;4951022;28;20042;-53
2022/03/10 04:25:27;;;;;;;4.53;2.28;;;24.30;33.80;;;;;;4952152;28;20047;-57
2022/03/10 04:27:56;;;;;;;3.65;2.30;;;24.20;33.70;;;;;;4951343;28;20492;-55
2022/03/10 04:30:23;;;;;;;2.08;1.48;;;24.20;33.80;;;;;;4950758;28;20051;-56
2022/03/10 04:32:52;;;;;;;2.10;1.83;;;24.20;33.80;;;;;;4948918;28;20054;-52
2022/03/10 04:35:20;;;;;;;2.17;1.83;;;24.30;34.40;;;;;;4950722;28;20407;-54
2022/03/10 04:37:50;;;;;;;2.38;2.17;;;24.20;33.70;;;;;;4950447;28;20459;-52
2022/03/10 04:40:20;;;;;;;1.45;1.33;;;24.20;33.60;;;;;;4952301;28;20058;-53
2022/03/10 04:42:49;;;;;;;4.53;1.83;;;24.20;33.60;;;;;;4950030;28;20046;-53
2022/03/10 04:45:16;;;;;;;3.05;2.38;;;24.20;33.60;;;;;;4950468;28;20054;-53
2022/03/10 04:47:43;;;;;;;1.95;1.50;;;24.20;33.60;;;;;;4949702;28;20043;-55
2022/03/10 04:50:13;;;;;;;1.77;1.55;;;24.20;33.60;;;;;;4950599;28;20044;-53
2022/03/10 04:52:40;;;;;;;1.85;1.65;;;24.20;33.50;;;;;;4950483;28;20385;-55
2022/03/10 04:55:10;;;;;;;3.90;2.30;;;24.20;33.50;;;;;;4952210;28;20078;-51
2022/03/10 04:57:39;;;;;;;1.60;1.50;;;24.20;33.50;;;;;;4961840;28;20459;-56
2022/03/10 05:00:10;;;;;;;1.40;1.30;;;24.20;33.60;;;;;;4962522;28;20050;-56
2022/03/10 05:02:39;;;;;;;1.98;1.88;;;24.20;33.60;;;;;;4960514;28;20049;-53
2022/03/10 05:05:07;;;;;;;2.08;1.27;;;24.20;33.60;;;;;;4962094;28;20093;-55
2022/03/10 05:07:35;;;;;;;1.42;1.33;;;24.20;33.60;;;;;;4962153;28;20071;-56
2022/03/10 05:10:02;;;;;;;1.48;1.38;;;24.20;33.60;;;;;;4964809;28;20047;-55
2022/03/10 05:12:29;;;;;;;2.42;1.95;;;24.10;33.50;;;;;;4961228;28;20043;-56
2022/03/10 05:14:58;;;;;;;2.88;2.50;;;24.10;33.60;;;;;;4960564;28;20047;-52
2022/03/10 05:17:25;;;;;;;2.83;2.28;;;24.10;33.50;;;;;;4961301;28;20045;-52
2022/03/10 05:19:52;;;;;;;1.80;1.70;;;24.10;33.50;;;;;;4960900;28;20451;-50
2022/03/10 05:22:20;;;;;;;2.05;1.45;;;24.10;33.50;;;;;;4963613;28;20512;-51
2022/03/10 05:24:47;;;;;;;2.47;1.98;;;24.10;33.60;;;;;;4961061;28;20415;-52
2022/03/10 05:27:14;;;;;;;3.13;1.88;;;24.10;33.60;;;;;;4953451;28;20504;-50
2022/03/10 05:29:41;;;;;;;1.90;1.80;;;24.10;33.60;;;;;;4949560;28;20031;-53
2022/03/10 05:32:12;;;;;;;1.77;1.63;;;24.10;33.70;;;;;;4949311;28;20423;-59
2022/03/10 05:34:39;;;;;;;3.17;2.63;;;24.10;33.70;;;;;;4948631;28;20035;-56
2022/03/10 05:37:06;;;;;;;1.75;1.63;;;24.10;33.70;;;;;;4950944;28;20049;-54
2022/03/10 05:39:33;;;;;;;2.13;2.03;;;24.10;33.70;;;;;;4948754;28;20047;-55
2022/03/10 05:42:00;;;;;;;2.45;2.33;;;24.10;33.60;;;;;;4949238;28;20047;-53
2022/03/10 05:44:27;;;;;;;1.92;1.83;;;24.10;33.60;;;;;;4949137;28;20077;-54
2022/03/10 05:46:54;;;;;;;1.98;1.88;;;24.10;33.60;;;;;;4949298;28;20173;-56
2022/03/10 05:49:23;;;;;;;1.85;1.67;;;24.10;33.70;;;;;;4965731;28;20062;-54
2022/03/10 05:51:50;;;;;;;2.60;2.50;;;24.10;33.70;;;;;;4950013;28;20043;-56
2022/03/10 05:54:17;;;;;;;2.20;1.75;;;24.10;33.70;;;;;;4948919;28;20043;-52
2022/03/10 05:56:44;;;;;;;2.33;1.65;;;24.10;33.80;;;;;;4949020;28;20051;-52
2022/03/10 05:59:12;;;;;;;5.43;1.92;;;24.10;34.00;;;;;;4949459;28;20051;-58
2022/03/10 06:01:39;;;;;;;2.25;2.10;;;24.00;34.20;;;;;;4950007;28;20040;-58
2022/03/10 06:04:06;;;;;;;3.05;2.20;;;24.10;34.50;;;;;;4951343;28;20058;-57
2022/03/10 06:06:34;;;;;;;2.30;1.98;;;24.10;34.50;;;;;;4949332;28;20420;-56
2022/03/10 06:09:01;;;;;;;2.20;2.03;;;24.20;34.60;;;;;;4948636;28;20047;-55
2022/03/10 06:11:28;;;;;;;2.70;1.50;;;24.20;34.50;;;;;;4948768;28;20054;-56
2022/03/10 06:13:55;;;;;;;1.75;1.42;;;24.30;34.50;;;;;;4949069;28;20050;-53
2022/03/10 06:16:22;;;;;;;2.03;1.08;;;24.40;34.40;;;;;;4950080;28;20729;-55
2022/03/10 06:18:49;;;;;;;1.70;1.55;;;24.50;34.30;;;;;;4948498;28;20049;-54
2022/03/10 06:21:16;;;;;;;5.28;2.03;;;24.60;34.30;;;;;;4949100;28;20131;-56
2022/03/10 06:23:45;;;;;;;2.08;1.42;;;24.60;34.20;;;;;;4962261;28;20051;-53
2022/03/10 06:26:12;;;;;;;2.90;2.03;;;24.70;34.10;;;;;;4947942;28;20039;-55
2022/03/10 06:28:39;;;;;;;3.08;1.60;;;24.80;34.00;;;;;;4948635;28;20494;-56
2022/03/10 06:31:07;;;;;;;2.03;1.63;;;24.90;33.90;;;;;;4950229;28;20035;-57
2022/03/10 06:33:35;;;;;;;3.42;2.08;;;24.90;33.80;;;;;;4948860;28;20044;-56
2022/03/10 06:36:02;;;;;;;2.00;1.35;;;24.90;33.70;;;;;;4946664;28;20046;-56
2022/03/10 06:38:30;;;;;;;2.53;1.75;;;25.00;33.60;;;;;;4948875;28;20094;-58
2022/03/10 06:40:58;;;;;;;1.35;1.25;;;25.10;33.60;;;;;;4945542;28;20046;-54
2022/03/10 06:43:25;;;;;;;3.22;1.30;;;25.10;33.50;;;;;;4951095;28;20900;-57
2022/03/10 06:45:52;;;;;;;4.90;1.80;;;25.20;33.60;;;;;;4948595;28;20039;-53
2022/03/10 06:48:20;;;;;;;3.08;1.40;;;25.20;33.60;;;;;;4948395;28;20047;-52
2022/03/10 06:50:47;;;;;;;2.17;1.63;;;25.20;33.40;;;;;;4951040;28;20039;-54
2022/03/10 06:53:14;;;;;;;7.45;2.35;;;25.30;33.40;;;;;;4947652;28;20053;-50
2022/03/10 06:55:41;;;;;;;9.57;2.60;;;25.30;33.60;;;;;;4948636;28;20051;-50
2022/03/10 06:58:09;;;;;;;8.48;2.13;;;25.30;35.10;;;;;;4949185;29;20515;-50
2022/03/10 07:00:36;;;;;;;16.40;2.53;;;25.20;35.90;;;;;;4948708;28;20043;-50
2022/03/10 07:03:03;;;;;;;11.70;2.30;;;25.00;36.40;;;;;;4948208;28;20062;-50
2022/03/10 07:05:30;;;;;;;16.90;2.25;;;24.90;37.00;;;;;;4948175;28;20043;-50
2022/03/10 07:07:57;;;;;;;4.63;2.85;;;24.70;37.30;;;;;;4948129;28;20513;-51
2022/03/10 07:10:25;;;;;;;12.30;2.00;;;24.60;37.70;;;;;;4950088;29;20054;-49
2022/03/10 07:12:52;;;;;;;4.63;2.03;;;24.40;38.00;;;;;;4948203;28;20133;-48
2022/03/10 07:15:20;;;;;;;10.18;2.75;;;24.30;39.00;;;;;;4948113;28;20042;-51
2022/03/10 07:17:47;;;;;;;7.18;1.95;;;24.20;38.70;;;;;;4948259;29;20439;-51
2022/03/10 07:20:15;;;;;;;5.65;1.48;;;24.10;38.70;;;;;;4947735;28;20046;-54
2022/03/10 07:22:42;;;;;;;3.10;1.65;;;24.00;38.90;;;;;;4948057;28;20047;-51
2022/03/10 07:25:09;;;;;;;2.80;2.00;;;23.90;38.90;;;;;;4949655;29;20054;-52
2022/03/10 07:27:36;;;;;;;4.10;2.65;;;23.80;38.80;;;;;;4948252;28;20504;-49
2022/03/10 07:30:04;;;;;;;4.53;1.83;;;23.80;38.90;;;;;;4947455;28;20060;-52
2022/03/10 07:32:33;;;;;;;6.43;1.85;;;23.80;38.90;;;;;;4947918;28;20047;-51
2022/03/10 07:35:00;;;;;;;9.63;1.98;;;23.70;39.00;;;;;;4944953;28;20492;-49
2022/03/10 07:37:28;;;;;;;7.72;2.20;;;23.70;38.90;;;;;;4949138;28;20134;-50
2022/03/10 07:39:55;;;;;;;4.97;2.47;;;23.60;38.90;;;;;;4948419;28;20500;-50
2022/03/10 07:42:22;;;;;;;4.72;2.05;;;23.60;38.90;;;;;;4947884;28;20043;-51
2022/03/10 07:44:49;;;;;;;5.20;1.58;;;23.50;38.90;;;;;;4947680;28;20043;-50
2022/03/10 07:47:16;;;;;;;5.03;1.73;;;23.50;39.00;;;;;;4947964;29;20035;-51
2022/03/10 07:49:44;;;;;;;4.30;1.88;;;23.40;39.00;;;;;;4947824;28;20047;-49
2022/03/10 07:52:11;;;;;;;5.75;2.60;;;23.40;39.20;;;;;;4948953;28;20051;-49
2022/03/10 07:54:38;;;;;;;3.13;1.55;;;23.30;39.20;;;;;;4962441;28;20043;-51
2022/03/10 07:57:05;;;;;;;2.55;2.10;;;23.30;39.10;;;;;;4947539;28;20452;-49
2022/03/10 07:59:32;;;;;;;3.42;1.60;;;23.30;39.10;;;;;;4947458;28;20449;-50
2022/03/10 08:01:59;;;;;;;5.30;1.95;;;23.20;39.20;;;;;;4947359;28;20046;-51
2022/03/10 08:04:26;;;;;;;3.22;1.45;;;23.20;39.30;;;;;;4949040;29;20039;-51
2022/03/10 08:06:55;;;;;;;4.13;1.23;;;23.10;39.40;;;;;;4947739;28;20047;-49
2022/03/10 08:09:22;;;;;;;3.05;1.63;;;23.10;39.40;;;;;;4947871;28;20047;-51
2022/03/10 08:11:50;;;;;;;3.17;1.67;;;23.10;39.40;;;;;;4947899;28;20155;-50
2022/03/10 08:14:17;;;;;;;2.50;1.90;;;23.00;39.40;;;;;;4947564;28;20054;-50
2022/03/10 08:16:44;;;;;;;4.32;1.23;;;23.00;39.30;;;;;;4946917;28;20051;-48
2022/03/10 08:19:11;;;;;;;5.40;1.50;;;22.90;39.30;;;;;;4948598;28;20059;-50
2022/03/10 08:21:38;;;;;;;2.42;1.30;;;22.90;39.30;;;;;;4947243;28;20054;-50
2022/03/10 08:24:07;;;;;;;2.85;1.35;;;22.90;39.30;;;;;;4947288;28;20147;-49
2022/03/10 08:26:34;;;;;;;2.53;1.23;;;22.90;39.40;;;;;;4947210;28;20043;-48
2022/03/10 08:29:01;;;;;;;2.33;2.05;;;22.80;39.40;;;;;;4947401;28;20043;-49
2022/03/10 08:31:28;;;;;;;4.25;2.40;;;22.80;39.40;;;;;;4947887;28;20731;-48
2022/03/10 08:33:56;;;;;;;2.47;2.17;;;22.80;39.50;;;;;;4947527;28;20047;-51
2022/03/10 08:36:23;;;;;;;2.50;2.30;;;22.80;39.60;;;;;;4944382;28;20062;-49
2022/03/10 08:38:50;;;;;;;4.97;1.02;;;22.70;39.60;;;;;;4947316;28;20044;-49
2022/03/10 08:41:18;;;;;;;3.35;1.25;;;22.70;39.60;;;;;;4947284;28;20623;-48
2022/03/10 08:43:45;;;;;;;1.77;1.45;;;22.70;39.60;;;;;;4947626;29;20082;-49
2022/03/10 08:46:12;;;;;;;2.75;1.45;;;22.60;39.60;;;;;;4948945;29;20512;-48
2022/03/10 08:48:40;;;;;;;1.95;1.75;;;22.60;39.60;;;;;;4946749;28;20035;-48
2022/03/10 08:51:07;;;;;;;2.05;1.85;;;22.60;40.20;;;;;;4950685;28;20437;-48
2022/03/10 08:53:36;;;;;;;2.13;1.65;;;22.60;39.60;;;;;;4950498;28;20039;-51
2022/03/10 08:56:03;;;;;;;5.32;1.90;;;22.60;39.60;;;;;;4950818;28;20826;-49
2022/03/10 08:58:32;;;;;;;2.90;1.98;;;22.60;39.60;;;;;;4951240;28;20078;-50
2022/03/10 09:00:59;;;;;;;2.25;1.95;;;22.50;39.50;;;;;;4951520;28;20043;-48
2022/03/10 09:03:26;;;;;;;1.92;1.58;;;22.50;39.50;;;;;;4950212;28;20059;-49
2022/03/10 09:05:53;;;;;;;2.25;1.90;;;22.50;39.50;;;;;;4950145;28;20050;-48
2022/03/10 09:08:21;;;;;;;1.83;1.50;;;22.50;39.60;;;;;;4945970;28;20101;-50
2022/03/10 09:10:48;;;;;;;5.97;2.63;;;22.50;39.70;;;;;;4944618;28;20043;-44
2022/03/10 09:13:15;;;;;;;10.90;3.00;;;22.50;39.30;;;;;;4949603;28;20074;-55
2022/03/10 09:15:45;;;;;;;5.57;2.10;;;22.40;39.80;;;;;;4949807;28;20121;-57
2022/03/10 09:18:13;;;;;;;4.25;2.08;;;22.40;40.20;;;;;;4952803;28;20098;-51
2022/03/10 09:20:40;;;;;;;3.13;1.88;;;22.50;40.40;;;;;;4949822;28;20047;-53
2022/03/10 09:23:07;;;;;;;3.72;1.75;;;22.50;40.50;;;;;;4949200;28;20051;-55
2022/03/10 09:25:35;;;;;;;5.63;2.40;;;22.50;40.50;;;;;;4947872;28;20495;-48
2022/03/10 09:28:02;;;;;;;2.20;1.58;;;22.60;40.60;;;;;;4950052;28;20086;-55
2022/03/10 09:30:29;;;;;;;7.32;2.08;;;22.60;40.70;;;;;;4950454;28;20051;-51
2022/03/10 09:32:58;;;;;;;2.47;2.33;;;22.70;40.70;;;;;;4949551;28;20031;-54
2022/03/10 09:35:26;;;;;;;5.60;3.33;;;22.70;40.60;;;;;;4946775;28;20054;-51
2022/03/10 09:37:53;;;;;;;8.25;2.80;;;22.80;41.20;;;;;;4948900;28;20558;-50
2022/03/10 09:40:20;;;;;;;9.50;2.28;;;22.90;40.70;;;;;;4950418;28;20118;-53
2022/03/10 09:42:49;;;;;;;2.15;1.65;;;23.00;40.70;;;;;;4950176;28;20111;-54
2022/03/10 09:45:18;;;;;;;3.22;2.00;;;23.10;40.50;;;;;;4946695;28;20515;-59
2022/03/10 09:47:46;;;;;;;4.07;2.30;;;23.30;40.30;;;;;;4946593;28;20142;-63
2022/03/10 09:50:16;;;;;;;2.63;2.42;;;23.40;40.10;;;;;;4948416;28;20058;-54
2022/03/10 09:52:44;;;;;;;2.70;1.70;;;23.60;40.00;;;;;;4943743;28;20043;-53
2022/03/10 09:55:13;;;;;;;12.25;2.97;;;23.70;39.70;;;;;;4948626;28;20047;-49
2022/03/10 09:57:42;;;;;;;2.40;1.98;;;23.80;39.40;;;;;;4944084;28;20052;-49
2022/03/10 10:00:11;;;;;;;4.57;1.77;;;24.00;39.10;;;;;;4946023;28;20050;-49
2022/03/10 10:02:40;;;;;;;3.33;3.03;;;24.10;38.70;;;;;;4941495;28;20054;-48
2022/03/10 10:05:21;;;;;;;5.63;2.55;;;24.20;38.40;;;;;;4948113;28;20047;-48
2022/03/10 10:08:01;;;;;;;2.63;2.13;;;24.40;38.20;;;;;;4945818;28;20047;-53
2022/03/10 10:10:29;;;;;;;5.35;2.28;;;24.50;37.90;;;;;;4950945;28;20530;-52
2022/03/10 10:12:56;;;;;;;9.82;2.63;;;24.50;37.70;;;;;;4961334;28;20066;-62
2022/03/10 10:15:23;;;;;;;1.73;1.60;;;24.60;38.10;;;;;;4948033;28;20051;-57
2022/03/10 10:17:56;;;;;;;4.78;2.75;;;24.70;37.30;;;;;;4948842;28;20358;-56
2022/03/10 10:20:25;;;;;;;2.78;1.85;;;24.80;37.20;;;;;;4963266;28;20404;-55
2022/03/10 10:22:52;;;;;;;3.67;2.20;;;24.90;37.10;;;;;;4945804;28;20051;-50
2022/03/10 10:25:23;;;;;;;3.08;1.63;;;24.90;37.00;;;;;;4950656;28;20532;-58
2022/03/10 10:27:50;;;;;;;5.70;1.92;;;25.00;37.00;;;;;;4948965;28;20044;-62
2022/03/10 10:30:17;;;;;;;3.30;2.95;;;25.00;37.00;;;;;;4948193;28;20129;-56
2022/03/10 10:32:49;;;;;;;10.07;2.30;;;25.10;37.00;;;;;;4948648;28;20468;-67
2022/03/10 10:35:21;;;;;;;2.80;1.50;;;25.20;37.20;;;;;;4946299;28;20043;-64
2022/03/10 10:37:51;;;;;;;2.42;1.83;;;25.20;37.00;;;;;;4963532;28;20711;-56
2022/03/10 10:40:21;;;;;;;5.38;2.35;;;25.30;37.10;;;;;;4950108;28;20073;-65
2022/03/10 10:42:49;;;;;;;3.83;1.88;;;25.30;37.10;;;;;;4947586;28;20562;-58
2022/03/10 10:45:31;;;;;;;6.07;2.05;;;25.30;37.00;;;;;;4948128;28;20283;-57
2022/03/10 10:48:02;;;;;;;3.10;1.27;;;25.40;36.90;;;;;;4948306;28;20051;-56
2022/03/10 10:50:30;;;;;;;6.00;1.33;;;25.50;36.90;;;;;;4958982;28;20040;-56
2022/03/10 10:52:59;;;;;;;7.10;1.60;;;25.50;36.70;;;;;;4948658;28;20043;-58
2022/03/10 10:55:33;;;;;;;3.15;1.20;;;25.60;36.80;;;;;;4949971;28;20047;-62
2022/03/10 10:58:08;;;;;;;5.38;1.75;;;25.70;36.80;;;;;;4948932;28;20062;-63
2022/03/10 11:00:43;;;;;;;;;;;25.70;36.70;;;;;;4949001;28;20039;-59
2022/03/10 11:03:21;;;;;;;4.22;1.15;;;25.70;36.60;;;;;;4948029;28;19929;-54
2022/03/10 11:05:48;;;;;;;2.58;1.25;;;25.80;36.70;;;;;;4942799;28;20059;-50
2022/03/10 11:08:18;;;;;;;2.40;1.10;;;25.80;36.40;;;;;;4947188;28;20068;-53
2022/03/10 11:10:45;;;;;;;3.17;1.50;;;25.90;36.50;;;;;;4943724;28;20043;-50
2022/03/10 11:13:12;;;;;;;2.70;1.30;;;25.90;36.40;;;;;;4947324;28;20058;-52
2022/03/10 11:15:40;;;;;;;2.70;1.10;;;26.00;36.30;;;;;;4948218;28;20054;-52
2022/03/10 11:18:09;;;;;;;2.30;1.20;;;26.10;36.30;;;;;;4947834;28;20054;-50
2022/03/10 11:20:37;;;;;;;3.65;1.23;;;26.20;36.20;;;;;;4947508;28;20039;-50
2022/03/10 11:23:15;;;;;;;2.03;1.38;;;26.20;36.20;;;;;;4947946;28;20534;-54
2022/03/10 11:25:54;;;;;;;4.65;1.02;;;26.30;36.10;;;;;;4948141;28;20044;-53
2022/03/10 11:28:23;;;;;;;1.48;0.95;;;26.30;36.10;;;;;;4948477;28;20057;-57
2022/03/10 11:30:51;;;;;;;1.63;1.52;;;26.40;36.10;;;;;;4947450;28;20703;-51
2022/03/10 11:33:18;;;;;;;1.85;0.85;;;26.40;36.00;;;;;;4948329;28;20631;-52
2022/03/10 11:35:47;;;;;;;3.20;0.60;;;26.50;36.00;;;;;;4943016;28;20050;-51
2022/03/10 11:38:15;;;;;;;2.58;0.68;;;26.60;36.00;;;;;;4947614;28;20046;-55
2022/03/10 11:40:56;;;;;;;1.75;0.60;;;26.60;35.90;;;;;;4947665;28;20042;-52
2022/03/10 11:43:31;;;;;;;4.68;1.67;;;26.60;35.80;;;;;;4945867;28;20075;-46
2022/03/10 11:46:26;;;;;;;1.20;0.68;;;26.70;34.90;;;;;;4944082;28;20043;-45
2022/03/10 11:49:12;;;;;;;1.30;0.52;;;26.70;34.80;;;;;;4925163;29;20056;-46
2022/03/10 11:51:52;;;;;;;1.85;1.55;;;26.60;34.70;;;;;;4923691;29;20432;-47
2022/03/10 11:54:24;;;;;;;2.47;0.57;;;26.50;34.80;;;;;;4925441;29;20079;-47
2022/03/10 11:57:09;;;;;;;1.10;1.00;;;26.40;35.20;;;;;;4923425;29;20044;-49
2022/03/10 11:59:49;;;;;;;0.75;0.75;;;26.40;35.30;;;;;;4923369;29;20133;-46
2022/03/10 12:02:40;;;;;;;2.95;0.93;;;26.30;35.50;;;;;;4922222;29;20724;-52
2022/03/10 12:05:09;;;;;;;3.83;0.90;;;26.20;36.30;;;;;;4924750;29;20048;-50
2022/03/10 12:07:36;;;;;;;9.93;1.58;;;26.20;36.80;;;;;;4924571;29;20131;-53
2022/03/10 12:10:09;;;;;;;3.05;0.85;;;26.10;37.20;;;;;;4924686;29;20558;-50
2022/03/10 12:12:39;;;;;;;3.00;0.55;;;26.10;37.90;;;;;;4924064;29;20071;-48
2022/03/10 12:15:45;;;;;;;2.38;0.38;;;26.10;38.20;;;;;;4924859;29;20788;-50
2022/03/10 12:18:24;;;;;;;3.15;0.70;;;26.10;38.60;;;;;;4921696;29;20054;-54
2022/03/10 12:20:54;;;;;;;7.88;1.17;;;26.00;39.00;;;;;;4923661;29;20044;-55
2022/03/10 12:23:25;;;;;;;4.72;1.00;;;26.00;39.20;;;;;;4925220;29;20052;-54
2022/03/10 12:25:54;;;;;;;1.45;0.90;;;26.00;39.40;;;;;;4950089;28;20154;-55
2022/03/10 12:28:26;;;;;;;5.28;1.23;;;25.90;39.50;;;;;;4952754;29;20040;-54
2022/03/10 12:31:14;;;;;;;3.42;0.70;;;25.90;39.50;;;;;;4951335;28;20059;-55
2022/03/10 12:33:52;;;;;;;5.90;0.70;;;25.90;39.80;;;;;;4949639;28;20051;-51
2022/03/10 12:36:26;;;;;;;0.93;0.93;;;25.90;39.80;;;;;;4951168;28;20130;-51
2022/03/10 12:38:53;;;;;;;2.97;0.70;;;25.80;40.00;;;;;;4965163;28;20142;-54
2022/03/10 12:41:20;;;;;;;1.00;0.85;;;25.80;40.00;;;;;;4950785;28;20050;-56
2022/03/10 12:43:54;;;;;;;3.92;0.50;;;25.70;40.00;;;;;;4952033;28;20479;-53
2022/03/10 12:46:22;;;;;;;1.45;0.63;;;25.80;40.00;;;;;;4952484;29;20050;-51
2022/03/10 12:49:00;;;;;;;1.85;0.80;;;25.80;40.10;;;;;;4950657;28;20503;-54
2022/03/10 12:51:29;;;;;;;2.08;0.52;;;25.70;39.90;;;;;;4950291;28;20082;-55
2022/03/10 12:53:58;;;;;;;1.90;0.52;;;25.70;39.90;;;;;;4950584;28;20040;-55
2022/03/10 12:56:25;;;;;;;1.00;0.63;;;25.70;39.80;;;;;;4951124;28;20050;-53
2022/03/10 12:58:55;;;;;;;0.85;0.70;;;25.70;39.80;;;;;;4950707;28;20040;-55
2022/03/10 13:01:23;;;;;;;1.00;0.40;;;25.70;39.80;;;;;;4952390;28;20087;-53